Time;durP1;ratioP1;P1;durP2;ratioP2;P2;SDS_P1;SDS_P2;PMS_P1;PMS_P2;Temp;Humidity;BMP_temperature;BMP_pressure;BME280_temperature;BME280_humidity;BME280_pressure;Samples;Min_cycle;Max_cycle;Signal;HPM_P1;HPM_P2
2024/01/14 00:04:52;;;;;;;17.40;13.10;;;;;;;-1.30;81.49;97963.02;226105;1274;22534;-75
2024/01/14 00:09:55;;;;;;;19.10;13.30;;;;;;;-1.28;81.08;97941.80;226285;1273;25432;-75
2024/01/14 00:14:57;;;;;;;21.30;13.80;;;;;;;-1.29;81.12;97936.50;226234;1272;22540;-75
2024/01/14 00:19:59;;;;;;;18.90;13.20;;;;;;;-1.26;81.43;97932.86;226252;1272;22561;-75
2024/01/14 00:25:02;;;;;;;17.20;10.00;;;;;;;-1.24;81.38;97929.87;226279;1266;22542;-75
2024/01/14 00:30:06;;;;;;;15.10;10.20;;;;;;;-1.22;81.45;97925.91;226089;1259;22724;-75
2024/01/14 00:35:09;;;;;;;19.70;12.30;;;;;;;-1.19;81.52;97924.80;226296;1273;22577;-75
2024/01/14 00:40:11;;;;;;;16.30;11.30;;;;;;;-1.15;81.79;97926.50;226157;1273;24306;-75
2024/01/14 00:45:13;;;;;;;16.20;10.20;;;;;;;-1.11;81.46;97918.49;226099;1273;22626;-75
2024/01/14 00:50:15;;;;;;;12.90;8.40;;;;;;;-1.06;81.83;97909.13;226152;1274;22552;-75
2024/01/14 00:55:18;;;;;;;16.20;9.90;;;;;;;-1.02;81.73;97895.85;226228;1273;24458;-75
2024/01/14 01:00:21;;;;;;;13.60;9.30;;;;;;;-0.99;81.61;97891.75;226340;1272;22560;-74
2024/01/14 01:05:24;;;;;;;13.20;9.10;;;;;;;-0.97;81.60;97890.16;226018;1273;22540;-74
2024/01/14 01:10:26;;;;;;;9.30;7.20;;;;;;;-0.96;81.61;97886.95;226242;1273;25439;-74
2024/01/14 01:15:28;;;;;;;12.80;9.00;;;;;;;-0.95;81.62;97873.85;226098;1269;22556;-75
2024/01/14 01:20:31;;;;;;;10.00;6.30;;;;;;;-0.93;81.60;97873.05;226266;1273;24257;-74
2024/01/14 01:25:33;;;;;;;12.90;8.60;;;;;;;-0.92;81.58;97863.59;226285;1270;22559;-74
2024/01/14 01:30:36;;;;;;;13.00;7.90;;;;;;;-0.90;81.48;97851.89;226279;1272;22548;-75
2024/01/14 01:35:38;;;;;;;12.60;7.30;;;;;;;-0.89;81.56;97842.93;226226;1273;22602;-74
2024/01/14 01:40:41;;;;;;;11.10;8.00;;;;;;;-0.88;81.59;97835.02;226221;1273;25650;-75
2024/01/14 01:45:43;;;;;;;11.00;6.90;;;;;;;-0.88;81.57;97826.91;226291;1273;22573;-75
2024/01/14 01:50:46;;;;;;;10.80;6.80;;;;;;;-0.88;81.70;97817.41;226294;1272;24202;-75
2024/01/14 01:55:49;;;;;;;11.90;8.40;;;;;;;-0.88;81.55;97817.05;226092;1273;22593;-74
2024/01/14 02:00:51;;;;;;;11.90;7.70;;;;;;;-0.88;81.52;97806.70;226213;1273;22541;-75
2024/01/14 02:05:57;;;;;;;11.20;7.40;;;;;;;-0.88;81.63;97813.25;226011;1274;22565;-74
2024/01/14 02:11:00;;;;;;;9.00;6.30;;;;;;;-0.87;81.47;97804.38;226265;1274;22586;-75
2024/01/14 02:16:02;;;;;;;10.20;6.20;;;;;;;-0.86;81.55;97799.73;226204;1273;23025;-74
2024/01/14 02:21:07;;;;;;;10.10;7.10;;;;;;;-0.84;81.81;97795.29;226246;1274;22590;-75
2024/01/14 02:26:09;;;;;;;10.80;6.70;;;;;;;-0.85;81.48;97792.01;226074;1259;22544;-75
2024/01/14 02:31:11;;;;;;;10.50;7.00;;;;;;;-0.84;81.99;97792.73;226212;1274;22615;-74
2024/01/14 02:36:14;;;;;;;11.10;8.10;;;;;;;-0.85;81.78;97785.35;226008;1273;24220;-75
2024/01/14 02:41:16;;;;;;;9.90;7.20;;;;;;;-0.88;82.25;97777.80;226229;1256;22558;-75
2024/01/14 02:46:19;;;;;;;14.00;8.80;;;;;;;-0.92;83.17;97771.99;226137;1274;22556;-75
2024/01/14 02:51:22;;;;;;;9.30;6.70;;;;;;;-0.95;83.29;97751.23;226249;1273;22543;-75
2024/01/14 02:56:25;;;;;;;10.60;7.60;;;;;;;-0.96;83.31;97736.58;226126;1274;22576;-75
2024/01/14 03:01:27;;;;;;;8.50;6.00;;;;;;;-0.95;83.20;97734.91;226270;1273;22564;-75
2024/01/14 03:06:29;;;;;;;12.70;8.40;;;;;;;-0.95;83.26;97724.58;226254;1272;22552;-75
2024/01/14 03:11:32;;;;;;;10.10;6.70;;;;;;;-0.94;83.22;97710.19;225971;1267;26397;-75
2024/01/14 03:16:34;;;;;;;10.20;6.50;;;;;;;-0.96;83.10;97707.39;226277;1270;22728;-75
2024/01/14 03:21:37;;;;;;;12.80;8.80;;;;;;;-0.96;83.43;97712.02;226096;1274;22556;-74
2024/01/14 03:26:39;;;;;;;11.00;7.20;;;;;;;-0.95;83.26;97708.02;226105;1273;22946;-75
2024/01/14 03:31:41;;;;;;;10.40;6.60;;;;;;;-0.95;83.29;97711.45;226180;1274;25564;-75
2024/01/14 03:36:43;;;;;;;11.60;8.50;;;;;;;-0.93;83.39;97702.11;226196;1274;22641;-76
2024/01/14 03:41:45;;;;;;;11.40;7.60;;;;;;;-0.92;83.52;97700.44;226043;1273;281259;-75
2024/01/14 03:46:47;;;;;;;14.00;9.10;;;;;;;-0.91;84.44;97700.58;226211;1274;22610;-75
2024/01/14 03:51:49;;;;;;;12.90;9.40;;;;;;;-0.92;84.68;97687.89;226063;1273;22609;-75
2024/01/14 03:56:52;;;;;;;11.30;7.90;;;;;;;-0.95;84.18;97684.68;226161;1274;22548;-75
2024/01/14 04:01:54;;;;;;;14.60;10.10;;;;;;;-0.95;84.07;97679.52;226136;1274;22724;-75
2024/01/14 04:06:56;;;;;;;15.80;10.50;;;;;;;-0.97;83.82;97672.02;226004;1273;22549;-74
2024/01/14 04:11:58;;;;;;;16.80;11.40;;;;;;;-1.00;83.99;97675.62;226020;1273;22540;-74
2024/01/14 04:17:00;;;;;;;14.90;10.60;;;;;;;-1.03;83.91;97673.64;226225;1273;22666;-75
2024/01/14 04:22:03;;;;;;;12.90;8.80;;;;;;;-1.05;84.10;97674.06;226102;1273;22536;-74
2024/01/14 04:27:05;;;;;;;16.00;11.60;;;;;;;-1.06;85.33;97671.03;226261;1270;22561;-74
2024/01/14 04:32:08;;;;;;;18.40;11.20;;;;;;;-1.09;87.28;97665.23;226148;1273;22553;-75
2024/01/14 04:37:10;;;;;;;18.00;11.70;;;;;;;-1.16;89.71;97661.17;226255;1273;22563;-74
2024/01/14 04:42:12;;;;;;;17.20;11.80;;;;;;;-1.18;90.48;97657.48;226162;1273;22657;-75
2024/01/14 04:47:14;;;;;;;15.50;10.50;;;;;;;-1.19;91.12;97653.85;226232;1273;22628;-75
2024/01/14 04:52:16;;;;;;;14.40;10.30;;;;;;;-1.18;91.66;97646.21;226339;1258;22574;-75
2024/01/14 04:57:18;;;;;;;14.00;10.60;;;;;;;-1.17;92.03;97657.88;226112;1270;22543;-75
2024/01/14 05:02:22;;;;;;;14.30;9.70;;;;;;;-1.14;92.04;97664.45;226239;1273;22551;-75
2024/01/14 05:07:25;;;;;;;15.70;10.70;;;;;;;-1.09;91.63;97653.85;226007;1274;22560;-75
2024/01/14 05:12:27;;;;;;;14.30;7.90;;;;;;;-1.09;92.62;97661.09;226179;1270;22903;-75
2024/01/14 05:17:30;;;;;;;12.50;8.30;;;;;;;-1.09;93.35;97659.73;226198;1251;24225;-75
2024/01/14 05:22:32;;;;;;;12.10;8.90;;;;;;;-1.08;93.76;97664.41;226163;1272;25661;-74
2024/01/14 05:27:34;;;;;;;14.00;9.60;;;;;;;-1.03;94.00;97650.66;226082;1273;23093;-74
2024/01/14 05:32:36;;;;;;;12.50;8.20;;;;;;;-0.96;93.56;97649.15;226031;1274;22837;-74
2024/01/14 05:37:38;;;;;;;12.30;8.80;;;;;;;-0.88;93.36;97648.21;226146;1273;22661;-74
2024/01/14 05:42:42;;;;;;;12.10;6.70;;;;;;;-0.81;92.96;97647.06;226288;1270;23100;-74
2024/01/14 05:47:44;;;;;;;13.50;8.80;;;;;;;-0.76;92.31;97642.17;226196;1273;22559;-74
2024/01/14 05:52:46;;;;;;;12.60;9.00;;;;;;;-0.71;91.97;97643.12;226199;1273;22702;-74
2024/01/14 05:57:48;;;;;;;11.20;8.20;;;;;;;-0.66;91.14;97635.05;226150;1274;23733;-75
2024/01/14 06:02:50;;;;;;;12.10;8.50;;;;;;;-0.63;90.36;97622.51;226169;1273;22550;-74
2024/01/14 06:07:52;;;;;;;13.00;8.40;;;;;;;-0.59;90.12;97626.30;226209;1274;23252;-74
2024/01/14 06:12:54;;;;;;;10.90;8.10;;;;;;;-0.57;90.28;97628.86;226246;1273;22605;-74
2024/01/14 06:17:56;;;;;;;11.80;7.50;;;;;;;-0.57;91.31;97634.38;226146;1273;22675;-74
2024/01/14 06:22:59;;;;;;;13.80;8.90;;;;;;;-0.60;92.16;97636.43;226052;1274;24267;-75
2024/01/14 06:28:02;;;;;;;12.00;8.70;;;;;;;-0.67;92.77;97639.70;226091;1273;25268;-75
2024/01/14 06:33:04;;;;;;;12.60;9.10;;;;;;;-0.74;93.24;97632.20;226217;1268;22808;-74
2024/01/14 06:38:10;;;;;;;11.40;9.10;;;;;;;-0.79;93.82;97629.55;226301;1271;22609;-75
2024/01/14 06:43:12;;;;;;;11.80;8.50;;;;;;;-0.79;93.96;97630.98;226283;1267;22605;-75
2024/01/14 06:48:14;;;;;;;12.20;8.50;;;;;;;-0.78;93.96;97628.77;226137;1274;24273;-75
2024/01/14 06:53:16;;;;;;;13.50;9.80;;;;;;;-0.75;93.79;97625.91;226106;1270;22707;-75
2024/01/14 06:58:18;;;;;;;11.30;8.00;;;;;;;-0.72;93.86;97613.61;226064;1273;22550;-76
2024/01/14 07:03:20;;;;;;;11.60;7.90;;;;;;;-0.65;93.44;97613.86;226212;1271;22549;-76
2024/01/14 07:08:24;;;;;;;12.20;9.50;;;;;;;-0.60;92.87;97607.55;226201;1267;22541;-76
2024/01/14 07:13:26;;;;;;;11.70;8.40;;;;;;;-0.56;92.58;97613.90;226290;1273;22558;-75
2024/01/14 07:18:28;;;;;;;13.60;9.30;;;;;;;-0.53;92.33;97623.93;226137;1273;22551;-75
2024/01/14 07:23:30;;;;;;;12.10;9.10;;;;;;;-0.49;92.26;97622.71;226174;1274;22555;-75
2024/01/14 07:28:47;;;;;;;11.40;7.50;;;;;;;-0.44;92.59;97621.48;226117;1273;22713;-75
2024/01/14 07:33:50;;;;;;;9.60;7.40;;;;;;;-0.39;92.51;97617.71;226204;1273;22535;-75
2024/01/14 07:38:55;;;;;;;10.40;8.00;;;;;;;-0.33;92.45;97618.25;226072;1273;22540;-75
2024/01/14 07:43:57;;;;;;;10.90;7.50;;;;;;;-0.27;92.51;97622.15;226206;1273;22540;-75
2024/01/14 07:49:00;;;;;;;9.70;6.80;;;;;;;-0.19;92.47;97629.34;226229;1270;22554;-75
2024/01/14 07:54:02;;;;;;;9.80;7.10;;;;;;;-0.12;92.47;97634.30;226170;1274;22557;-75
2024/01/14 07:59:05;;;;;;;9.50;7.00;;;;;;;-0.02;92.26;97638.48;226270;1273;22576;-76
2024/01/14 08:04:07;;;;;;;9.10;6.10;;;;;;;0.09;92.03;97648.88;226199;1273;22538;-76
2024/01/14 08:09:10;;;;;;;7.70;4.60;;;;;;;0.10;92.02;97640.33;226264;1274;23423;-75
2024/01/14 08:14:13;;;;;;;9.40;6.30;;;;;;;0.14;91.83;97640.75;226262;1272;22527;-77
2024/01/14 08:19:15;;;;;;;8.10;5.80;;;;;;;0.18;91.26;97636.58;226237;1273;22525;-77
2024/01/14 08:24:18;;;;;;;9.20;6.10;;;;;;;0.22;90.95;97636.30;226169;1270;22592;-75
2024/01/14 08:29:20;;;;;;;10.30;6.50;;;;;;;0.29;90.71;97635.95;226305;1273;22579;-76
2024/01/14 08:34:26;;;;;;;8.00;5.90;;;;;;;0.29;90.21;97629.49;226096;1259;23606;-76
2024/01/14 08:39:29;;;;;;;8.60;5.80;;;;;;;0.27;89.86;97634.09;226255;1272;22618;-76
2024/01/14 08:44:31;;;;;;;7.70;5.90;;;;;;;0.42;89.99;97641.13;226297;1273;22555;-75
2024/01/14 08:49:33;;;;;;;8.10;6.00;;;;;;;0.60;89.72;97634.42;226312;1273;22558;-76
2024/01/14 08:54:36;;;;;;;7.10;5.30;;;;;;;0.74;89.18;97637.40;226224;1269;24243;-76
2024/01/14 08:59:38;;;;;;;8.20;5.50;;;;;;;0.86;88.46;97638.77;226083;1273;22547;-75
2024/01/14 09:04:40;;;;;;;6.40;5.10;;;;;;;0.98;88.27;97646.33;226135;1273;24361;-76
2024/01/14 09:09:42;;;;;;;7.70;5.70;;;;;;;1.09;87.58;97644.73;226161;1273;25313;-77
2024/01/14 09:14:44;;;;;;;7.60;5.20;;;;;;;1.22;87.60;97648.05;226280;1269;25281;-76
2024/01/14 09:19:46;;;;;;;7.60;6.00;;;;;;;1.41;87.14;97648.67;226049;1273;25293;-76
2024/01/14 09:24:49;;;;;;;7.30;5.50;;;;;;;1.52;86.25;97649.73;226261;1273;24371;-76
2024/01/14 09:29:51;;;;;;;7.40;5.70;;;;;;;1.52;85.77;97653.98;226283;1269;22544;-77
2024/01/14 09:34:53;;;;;;;10.10;6.20;;;;;;;1.56;85.87;97657.73;225926;1273;25283;-76
2024/01/14 09:39:55;;;;;;;9.10;5.50;;;;;;;1.72;85.56;97661.36;226133;1273;22545;-74
2024/01/14 09:45:01;;;;;;;6.90;5.30;;;;;;;1.91;85.19;97658.56;226119;1270;22572;-77
2024/01/14 09:50:07;;;;;;;9.10;6.00;;;;;;;2.07;84.68;97649.04;226376;1273;22536;-76
2024/01/14 09:55:11;;;;;;;10.90;6.60;;;;;;;2.17;84.24;97648.69;226089;1274;22576;-76
2024/01/14 10:00:14;;;;;;;10.00;6.60;;;;;;;2.25;84.16;97644.27;226276;1253;22631;-76
2024/01/14 10:05:18;;;;;;;10.40;6.80;;;;;;;2.33;83.65;97643.27;226289;1262;22550;-77
2024/01/14 10:10:20;;;;;;;10.10;6.70;;;;;;;2.29;83.51;97645.61;226320;1273;23125;-77
2024/01/14 10:15:22;;;;;;;9.90;6.30;;;;;;;2.30;83.25;97643.20;226095;1273;22539;-76
2024/01/14 10:20:24;;;;;;;10.80;6.50;;;;;;;2.37;83.02;97629.94;226149;1273;22571;-76
2024/01/14 10:25:27;;;;;;;9.20;6.10;;;;;;;2.50;82.62;97621.32;226279;1268;26036;-76
2024/01/14 10:30:29;;;;;;;9.50;5.50;;;;;;;2.72;82.67;97621.64;226284;1272;22531;-76
2024/01/14 10:35:32;;;;;;;9.90;6.30;;;;;;;2.89;82.02;97622.20;226291;1269;22578;-76
2024/01/14 10:40:35;;;;;;;10.10;6.60;;;;;;;2.96;81.44;97616.42;226298;1272;25907;-76
2024/01/14 10:45:37;;;;;;;11.90;6.60;;;;;;;2.99;81.14;97610.52;226247;1273;22546;-77
2024/01/14 10:50:44;;;;;;;11.10;6.80;;;;;;;2.89;80.68;97610.07;226294;1272;22679;-76
2024/01/14 10:55:59;;;;;;;11.10;7.00;;;;;;;2.75;80.59;97609.63;226149;1273;22649;-76
2024/01/14 11:01:06;;;;;;;9.10;6.30;;;;;;;2.65;80.81;97610.48;226306;1273;22926;-76
2024/01/14 11:06:09;;;;;;;8.70;5.90;;;;;;;2.51;80.42;97610.17;226148;1272;23130;-76
2024/01/14 11:11:17;;;;;;;9.30;6.80;;;;;;;2.42;80.53;97599.14;226297;1272;23689;-76
2024/01/14 11:16:42;;;;;;;10.40;7.00;;;;;;;2.38;80.43;97588.71;225970;1273;22548;-76
2024/01/14 11:22:06;;;;;;;11.70;7.30;;;;;;;2.44;80.82;97587.52;226393;1271;24342;-76
2024/01/14 11:27:29;;;;;;;14.10;7.70;;;;;;;2.51;80.44;97590.77;226275;1273;22549;-76
2024/01/14 11:32:41;;;;;;;11.40;6.80;;;;;;;2.48;80.28;97585.69;226354;1272;22590;-76
2024/01/14 11:37:45;;;;;;;10.90;6.30;;;;;;;2.54;80.31;97585.57;226239;1269;22646;-76
2024/01/14 11:42:55;;;;;;;7.00;4.90;;;;;;;2.56;80.16;97579.30;226192;1273;23382;-76
2024/01/14 11:48:02;;;;;;;7.60;5.00;;;;;;;2.60;80.50;97578.48;226310;1266;22551;-75
2024/01/14 11:53:07;;;;;;;5.90;4.00;;;;;;;2.73;80.54;97573.09;226272;1271;22544;-76
2024/01/14 11:58:10;;;;;;;6.30;4.60;;;;;;;2.81;79.97;97564.54;226234;1272;22555;-76
2024/01/14 12:03:14;;;;;;;8.40;6.00;;;;;;;2.78;79.46;97562.30;226356;1270;22540;-76
2024/01/14 12:08:18;;;;;;;7.60;5.60;;;;;;;2.65;79.53;97559.02;226249;1273;25366;-76
2024/01/14 12:13:20;;;;;;;9.60;7.00;;;;;;;2.46;79.70;97562.84;226339;1254;22544;-76
2024/01/14 12:18:23;;;;;;;8.10;5.70;;;;;;;2.43;80.02;97569.01;226327;1272;22616;-77
2024/01/14 12:23:26;;;;;;;8.20;5.90;;;;;;;2.44;80.18;97569.27;226276;1273;24052;-77
2024/01/14 12:28:28;;;;;;;8.00;6.20;;;;;;;2.43;80.05;97565.68;226319;1273;22561;-76
2024/01/14 12:33:30;;;;;;;7.80;6.00;;;;;;;2.40;79.68;97562.71;226143;1273;22536;-76
2024/01/14 12:38:33;;;;;;;7.70;6.10;;;;;;;2.36;79.76;97554.11;226269;1273;22547;-76
2024/01/14 12:43:35;;;;;;;9.00;6.40;;;;;;;2.42;80.13;97552.07;226295;1270;22559;-76
2024/01/14 12:48:37;;;;;;;7.50;5.10;;;;;;;2.55;80.07;97538.77;226272;1273;22547;-76
2024/01/14 12:53:39;;;;;;;7.20;5.20;;;;;;;2.52;79.21;97526.58;226112;1273;22567;-76
2024/01/14 12:58:41;;;;;;;6.40;4.90;;;;;;;2.56;79.31;97528.85;226189;1273;25503;-75
2024/01/14 13:03:45;;;;;;;7.50;5.10;;;;;;;2.64;79.20;97535.42;226149;1251;22574;-76
2024/01/14 13:08:47;;;;;;;7.10;5.40;;;;;;;2.66;79.13;97536.30;226281;1272;22687;-76
2024/01/14 13:13:49;;;;;;;8.10;5.90;;;;;;;2.62;79.08;97544.06;226253;1273;22565;-76
2024/01/14 13:18:52;;;;;;;9.20;6.20;;;;;;;2.53;78.84;97538.42;226253;1273;22902;-76
2024/01/14 13:23:54;;;;;;;11.20;7.60;;;;;;;2.38;78.77;97548.16;226116;1273;22574;-76
2024/01/14 13:29:10;;;;;;;8.30;6.20;;;;;;;2.27;79.26;97558.21;226207;1273;23032;-75
2024/01/14 13:34:15;;;;;;;10.40;7.70;;;;;;;2.14;79.25;97560.42;226261;1270;22817;-76
2024/01/14 13:39:17;;;;;;;10.50;7.70;;;;;;;1.95;79.70;97565.69;226139;1273;22538;-75
2024/01/14 13:44:19;;;;;;;11.30;7.70;;;;;;;1.80;80.14;97571.88;226309;1269;22547;-76
2024/01/14 13:49:24;;;;;;;10.90;7.50;;;;;;;1.65;80.49;97565.06;226124;1273;24431;-76
2024/01/14 13:54:26;;;;;;;10.40;7.40;;;;;;;1.53;80.71;97553.60;226264;1273;22576;-76
2024/01/14 13:59:33;;;;;;;9.00;6.40;;;;;;;1.39;80.90;97554.37;226154;1272;22540;-75
2024/01/14 14:04:35;;;;;;;11.00;7.60;;;;;;;1.26;81.40;97552.89;226280;1272;22555;-75
2024/01/14 14:09:37;;;;;;;10.10;7.30;;;;;;;1.17;81.46;97555.11;226208;1272;22564;-75
2024/01/14 14:14:40;;;;;;;13.20;8.80;;;;;;;1.12;81.65;97558.73;226202;1273;22673;-75
2024/01/14 14:19:42;;;;;;;12.70;8.30;;;;;;;1.11;81.92;97553.49;226284;1273;22563;-75
2024/01/14 14:24:44;;;;;;;10.40;7.40;;;;;;;1.11;82.22;97551.39;226268;1272;22530;-76
2024/01/14 14:29:47;;;;;;;11.60;8.70;;;;;;;1.10;81.98;97547.35;226278;1273;22708;-76
2024/01/14 14:34:49;;;;;;;14.20;8.80;;;;;;;1.07;81.92;97538.79;226237;1273;22579;-76
2024/01/14 14:39:52;;;;;;;11.30;7.90;;;;;;;1.01;81.76;97545.97;226141;1273;22628;-76
2024/01/14 14:44:54;;;;;;;13.40;8.40;;;;;;;1.00;82.10;97548.54;226181;1272;22544;-76
2024/01/14 14:49:57;;;;;;;11.90;9.00;;;;;;;0.98;82.02;97542.48;226106;1253;22536;-76
2024/01/14 14:55:00;;;;;;;12.20;7.60;;;;;;;0.93;82.00;97536.45;226175;1274;22604;-75
2024/01/14 15:00:02;;;;;;;14.40;9.00;;;;;;;0.88;81.86;97538.52;226226;1269;22558;-75
2024/01/14 15:05:05;;;;;;;12.70;8.40;;;;;;;0.83;81.95;97536.42;226258;1273;25313;-75
2024/01/14 15:10:07;;;;;;;13.20;8.80;;;;;;;0.79;81.92;97538.55;226139;1271;26027;-75
2024/01/14 15:15:09;;;;;;;14.00;8.40;;;;;;;0.77;82.03;97538.79;226250;1273;22545;-75
2024/01/14 15:20:11;;;;;;;18.80;10.40;;;;;;;0.76;81.89;97533.06;226282;1270;22535;-75
2024/01/14 15:25:14;;;;;;;14.70;9.40;;;;;;;0.76;82.27;97532.13;226297;1269;22559;-76
2024/01/14 15:30:18;;;;;;;15.30;10.30;;;;;;;0.78;82.37;97534.24;226276;1269;23019;-76
2024/01/14 15:35:20;;;;;;;14.70;8.80;;;;;;;0.81;82.31;97533.05;226266;1273;22573;-76
2024/01/14 15:40:25;;;;;;;13.60;8.80;;;;;;;0.81;82.43;97528.31;226284;1272;25351;-75
2024/01/14 15:45:28;;;;;;;12.90;8.20;;;;;;;0.81;82.01;97522.27;226097;1272;200601;-75
2024/01/14 15:50:30;;;;;;;17.50;10.50;;;;;;;0.78;82.14;97495.33;226101;1274;25415;-76
2024/01/14 15:55:32;;;;;;;14.50;9.60;;;;;;;0.74;82.12;97492.98;226316;1272;24416;-75
2024/01/14 16:00:35;;;;;;;15.40;9.40;;;;;;;0.72;82.12;97497.02;226298;1273;22542;-75
2024/01/14 16:05:38;;;;;;;17.30;9.60;;;;;;;0.71;82.21;97493.02;226312;1273;24378;-76
2024/01/14 16:10:40;;;;;;;14.60;8.50;;;;;;;0.66;82.39;97484.96;226171;1269;23886;-75
2024/01/14 16:15:48;;;;;;;12.80;7.40;;;;;;;0.62;82.07;97485.17;226263;1273;22579;-76
2024/01/14 16:20:51;;;;;;;13.30;8.50;;;;;;;0.61;82.38;97490.23;226147;1258;22533;-73
2024/01/14 16:26:07;;;;;;;13.80;9.10;;;;;;;0.60;82.40;97483.34;226056;1273;25006;-75
2024/01/14 16:31:10;;;;;;;14.10;9.00;;;;;;;0.61;82.51;97472.89;226127;1273;22545;-75
2024/01/14 16:36:16;;;;;;;13.40;8.10;;;;;;;0.62;82.43;97466.00;226218;1272;25294;-75
2024/01/14 16:41:19;;;;;;;14.70;8.60;;;;;;;0.63;82.28;97459.09;226276;1273;22743;-75
2024/01/14 16:46:22;;;;;;;15.00;9.40;;;;;;;0.64;82.48;97462.70;226087;1274;22554;-74
2024/01/14 16:51:25;;;;;;;22.40;12.30;;;;;;;0.63;82.54;97461.59;226027;1273;22543;-74
2024/01/14 16:56:32;;;;;;;21.30;13.00;;;;;;;0.60;82.44;97457.52;226248;1273;22543;-76
2024/01/14 17:01:40;;;;;;;24.00;12.90;;;;;;;0.58;82.58;97452.95;226080;1273;22556;-75
2024/01/14 17:06:43;;;;;;;22.90;13.20;;;;;;;0.56;82.40;97448.24;226097;1273;22637;-75
2024/01/14 17:11:47;;;;;;;21.70;13.00;;;;;;;0.55;82.73;97441.96;226184;1273;23013;-76
2024/01/14 17:16:52;;;;;;;20.90;11.60;;;;;;;0.55;82.53;97439.59;226264;1272;22563;-75
2024/01/14 17:21:55;;;;;;;25.30;13.10;;;;;;;0.55;82.67;97442.87;226072;1273;23326;-76
2024/01/14 17:26:58;;;;;;;22.60;12.40;;;;;;;0.53;82.56;97442.70;226119;1273;22547;-75
2024/01/14 17:32:00;;;;;;;21.30;12.10;;;;;;;0.52;82.46;97442.34;226066;1273;22543;-75
2024/01/14 17:37:05;;;;;;;22.50;12.40;;;;;;;0.51;82.58;97438.27;226017;1273;22648;-76
2024/01/14 17:42:09;;;;;;;22.60;12.10;;;;;;;0.50;82.78;97433.52;226118;1273;22540;-75
2024/01/14 17:47:13;;;;;;;19.40;12.20;;;;;;;0.49;82.65;97428.69;226128;1273;22539;-75
2024/01/14 17:52:16;;;;;;;19.70;12.10;;;;;;;0.49;82.80;97419.48;226276;1272;22536;-75
2024/01/14 17:57:19;;;;;;;24.60;13.60;;;;;;;0.50;82.80;97420.60;226285;1271;25240;-75
2024/01/14 18:02:21;;;;;;;20.30;12.90;;;;;;;0.50;82.67;97412.80;226264;1271;22582;-75
2024/01/14 18:07:28;;;;;;;19.00;11.40;;;;;;;0.51;82.95;97408.81;226243;1274;24297;-75
2024/01/14 18:12:31;;;;;;;22.80;12.70;;;;;;;0.51;82.90;97406.74;226348;1272;23034;-75
2024/01/14 18:17:33;;;;;;;23.70;11.90;;;;;;;0.50;82.76;97412.67;226277;1273;22611;-75
2024/01/14 18:22:35;;;;;;;20.30;10.90;;;;;;;0.50;82.93;97409.27;226275;1272;22942;-75
2024/01/14 18:27:39;;;;;;;21.70;12.60;;;;;;;0.48;82.97;97409.27;226296;1273;22633;-75
2024/01/14 18:32:43;;;;;;;20.00;11.30;;;;;;;0.49;82.94;97406.17;226306;1272;22577;-75
2024/01/14 18:38:02;;;;;;;19.40;11.10;;;;;;;0.49;82.95;97407.60;226181;1273;26175;-75
2024/01/14 18:43:05;;;;;;;16.50;9.90;;;;;;;0.48;82.87;97405.42;226215;1272;22554;-75
2024/01/14 18:48:08;;;;;;;17.00;10.10;;;;;;;0.49;83.07;97392.38;226304;1274;22540;-76
2024/01/14 18:53:13;;;;;;;15.80;9.60;;;;;;;0.50;82.91;97388.58;226245;1273;24670;-75
2024/01/14 18:58:17;;;;;;;16.90;9.80;;;;;;;0.49;83.11;97393.88;226148;1274;22555;-76
2024/01/14 19:03:22;;;;;;;18.50;10.30;;;;;;;0.50;83.11;97390.73;226257;1272;22558;-75
2024/01/14 19:08:24;;;;;;;15.50;9.40;;;;;;;0.51;82.93;97387.80;226286;1273;22548;-75
2024/01/14 19:13:26;;;;;;;15.90;9.80;;;;;;;0.52;82.80;97382.19;226332;1272;22547;-75
2024/01/14 19:18:29;;;;;;;17.30;10.70;;;;;;;0.52;82.89;97376.50;226279;1272;22496;-75
2024/01/14 19:23:34;;;;;;;16.30;10.50;;;;;;;0.49;82.96;97370.68;226101;1274;24407;-75
2024/01/14 19:28:40;;;;;;;18.90;10.60;;;;;;;0.49;82.88;97370.20;226262;1272;24285;-74
2024/01/14 19:33:43;;;;;;;17.30;10.50;;;;;;;0.48;82.81;97366.32;226158;1273;22582;-75
2024/01/14 19:38:46;;;;;;;15.50;9.60;;;;;;;0.46;82.67;97360.57;226273;1272;22572;-75
2024/01/14 19:43:52;;;;;;;17.60;9.40;;;;;;;0.46;83.00;97354.40;226301;1270;22554;-75
2024/01/14 19:48:55;;;;;;;16.50;9.40;;;;;;;0.45;82.75;97351.06;226111;1274;25089;-75
2024/01/14 19:54:03;;;;;;;15.60;8.80;;;;;;;0.44;82.82;97340.58;226224;1274;22555;-75
2024/01/14 19:59:06;;;;;;;16.80;10.70;;;;;;;0.43;82.60;97329.80;226185;1272;22591;-75
2024/01/14 20:04:09;;;;;;;15.60;9.70;;;;;;;0.44;82.41;97322.66;226192;1274;22672;-76
2024/01/14 20:09:12;;;;;;;16.80;9.50;;;;;;;0.42;82.66;97319.67;226225;1269;22609;-75
2024/01/14 20:14:14;;;;;;;15.70;9.10;;;;;;;0.42;82.42;97312.88;226207;1274;25625;-75
2024/01/14 20:19:17;;;;;;;15.00;8.10;;;;;;;0.43;82.85;97306.39;226143;1272;24250;-75
2024/01/14 20:24:20;;;;;;;16.20;9.50;;;;;;;0.43;82.45;97295.70;226269;1273;22536;-75
2024/01/14 20:29:26;;;;;;;16.90;10.30;;;;;;;0.42;82.65;97285.21;226257;1271;22554;-74
2024/01/14 20:34:28;;;;;;;15.80;8.80;;;;;;;0.40;82.48;97274.91;226205;1274;22590;-75
2024/01/14 20:39:33;;;;;;;14.80;8.40;;;;;;;0.39;82.51;97270.86;226190;1256;22578;-75
2024/01/14 20:44:36;;;;;;;16.40;9.50;;;;;;;0.39;82.47;97273.09;226283;1274;23625;-75
2024/01/14 20:49:39;;;;;;;18.60;9.70;;;;;;;0.39;82.64;97279.46;226319;1273;26271;-74
2024/01/14 20:54:42;;;;;;;17.90;9.50;;;;;;;0.39;82.28;97275.66;226270;1269;22909;-75
2024/01/14 20:59:49;;;;;;;18.20;9.10;;;;;;;0.39;82.37;97258.02;226210;1273;22557;-75
2024/01/14 21:04:52;;;;;;;16.40;9.40;;;;;;;0.38;82.17;97246.50;226226;1272;22546;-76
2024/01/14 21:09:57;;;;;;;20.40;11.40;;;;;;;0.37;82.34;97240.89;226251;1273;22564;-76
2024/01/14 21:15:02;;;;;;;21.50;10.80;;;;;;;0.34;82.04;97235.75;226127;1274;23281;-76
2024/01/14 21:20:08;;;;;;;20.00;10.70;;;;;;;0.33;82.38;97229.83;226194;1272;22552;-74
2024/01/14 21:25:10;;;;;;;21.10;11.00;;;;;;;0.32;82.24;97223.73;226316;1274;22540;-75
2024/01/14 21:30:14;;;;;;;17.70;9.40;;;;;;;0.32;82.34;97223.38;226245;1272;22896;-75
2024/01/14 21:35:16;;;;;;;17.90;10.50;;;;;;;0.34;81.97;97215.91;226217;1253;22589;-76
2024/01/14 21:40:20;;;;;;;17.40;9.60;;;;;;;0.34;82.09;97199.25;226223;1272;22552;-75
2024/01/14 21:45:23;;;;;;;23.40;12.60;;;;;;;0.33;82.06;97192.27;226196;1272;22595;-76
2024/01/14 21:50:25;;;;;;;22.90;11.90;;;;;;;0.30;82.10;97186.73;226239;1273;22549;-75
2024/01/14 21:55:44;;;;;;;19.60;10.50;;;;;;;0.27;81.96;97174.86;226187;1272;22533;-75
2024/01/14 22:00:46;;;;;;;18.00;10.00;;;;;;;0.28;82.13;97175.90;226289;1271;22569;-75
2024/01/14 22:05:49;;;;;;;18.70;11.10;;;;;;;0.28;82.03;97186.77;226241;1273;22597;-76
2024/01/14 22:10:51;;;;;;;17.80;10.40;;;;;;;0.28;81.89;97179.63;226220;1270;22597;-76
2024/01/14 22:15:53;;;;;;;20.30;9.80;;;;;;;0.26;81.94;97167.27;226323;1273;25294;-75
2024/01/14 22:20:55;;;;;;;18.50;11.00;;;;;;;0.24;81.86;97166.96;226242;1272;22559;-76
2024/01/14 22:25:57;;;;;;;17.40;9.00;;;;;;;0.23;81.88;97168.45;226189;1273;22550;-75
2024/01/14 22:30:59;;;;;;;17.60;9.70;;;;;;;0.20;81.56;97155.60;226226;1272;22616;-76
2024/01/14 22:36:01;;;;;;;19.00;10.10;;;;;;;0.18;81.63;97153.71;226275;1274;22543;-75
2024/01/14 22:41:03;;;;;;;16.10;10.00;;;;;;;0.18;81.51;97152.52;226250;1274;22530;-75
2024/01/14 22:46:06;;;;;;;18.10;10.00;;;;;;;0.17;81.78;97141.56;226349;1274;22551;-75
2024/01/14 22:51:08;;;;;;;17.90;9.60;;;;;;;0.16;81.45;97134.49;226049;1273;22620;-75
2024/01/14 22:56:10;;;;;;;14.50;7.10;;;;;;;0.17;81.51;97131.86;226347;1273;22547;-75
2024/01/14 23:01:15;;;;;;;15.90;8.50;;;;;;;0.16;81.32;97124.49;226196;1273;22537;-75
2024/01/14 23:06:18;;;;;;;17.50;10.20;;;;;;;0.14;81.37;97117.51;226145;1270;22544;-75
2024/01/14 23:11:20;;;;;;;16.20;9.10;;;;;;;0.12;81.38;97121.89;226343;1274;22614;-76
2024/01/14 23:16:22;;;;;;;15.10;8.10;;;;;;;0.09;81.30;97120.98;226305;1254;22555;-75
2024/01/14 23:21:24;;;;;;;13.80;8.60;;;;;;;0.05;81.22;97113.73;226248;1273;22733;-75
2024/01/14 23:26:26;;;;;;;15.00;8.30;;;;;;;0.05;81.40;97103.45;226139;1273;22643;-75